Time;durP1;ratioP1;P1;durP2;ratioP2;P2;SDS_P1;SDS_P2;PMS_P1;PMS_P2;Temp;Humidity;BMP_temperature;BMP_pressure;BME280_temperature;BME280_humidity;BME280_pressure;Samples;Min_cycle;Max_cycle;Signal;HPM_P1;HPM_P2
2022/09/17 00:00:02;;;;;;;;;;;;;;;;;;5105511;27;20209;-77
2022/09/17 00:02:50;;;;;;;;;;;;;;;;;;5100488;27;19916;-78
2022/09/17 00:05:36;;;;;;;;;;;;;;;;;;5104669;27;19919;-77
2022/09/17 00:08:23;;;;;;;;;;;;;;;;;;5107893;28;19931;-79
2022/09/17 00:11:09;;;;;;;;;;;;;;;;;;5104537;27;19918;-77
2022/09/17 00:13:56;;;;;;;;;;;;;;;;;;5101367;27;19919;-78
2022/09/17 00:16:42;;;;;;;;;;;;;;;;;;5095818;27;20293;-77
2022/09/17 00:19:29;;;;;;;;;;;;;;;;;;5106882;27;19920;-78
2022/09/17 00:22:15;;;;;;;;;;;;;;;;;;5103467;27;19916;-77
2022/09/17 00:25:02;;;;;;;;;;;;;;;;;;5094574;28;20290;-77
2022/09/17 00:27:48;;;;;;;;;;;;;;;;;;5102187;27;19915;-78
2022/09/17 00:30:35;;;;;;;;;;;;;;;;;;5098627;27;19914;-78
2022/09/17 00:33:21;;;;;;;;;;;;;;;;;;5094549;28;19916;-77
2022/09/17 00:36:08;;;;;;;;;;;;;;;;;;5092789;28;20259;-77
2022/09/17 00:38:54;;;;;;;;;;;;;;;;;;5096046;27;19915;-78
2022/09/17 00:41:41;;;;;;;;;;;;;;;;;;5105446;28;19912;-78
2022/09/17 00:44:27;;;;;;;;;;;;;;;;;;5109997;27;19920;-78
2022/09/17 00:47:14;;;;;;;;;;;;;;;;;;5102500;28;19919;-77
2022/09/17 00:50:00;;;;;;;;;;;;;;;;;;5114246;28;19919;-76
2022/09/17 00:52:46;;;;;;;;;;;;;;;;;;5108848;28;19908;-77
2022/09/17 00:55:33;;;;;;;;;;;;;;;;;;5108061;28;19914;-77
2022/09/17 00:58:20;;;;;;;;;;;;;;;;;;5096353;28;20040;-80
2022/09/17 01:01:06;;;;;;;;;;;;;;;;;;5106427;28;20282;-77
2022/09/17 01:03:53;;;;;;;;;;;;;;;;;;5098779;28;20356;-77
2022/09/17 01:06:39;;;;;;;;;;;;;;;;;;5108055;28;19912;-78
2022/09/17 01:09:25;;;;;;;;;;;;;;;;;;5110324;28;20384;-77
2022/09/17 01:12:12;;;;;;;;;;;;;;;;;;5101936;28;19928;-76
2022/09/17 01:14:58;;;;;;;;;;;;;;;;;;5104068;28;19918;-77
2022/09/17 01:17:45;;;;;;;;;;;;;;;;;;5110936;27;20378;-77
2022/09/17 01:20:31;;;;;;;;;;;;;;;;;;5110960;27;19919;-77
2022/09/17 01:23:18;;;;;;;;;;;;;;;;;;5111856;27;19934;-78
2022/09/17 01:26:04;;;;;;;;;;;;;;;;;;5110266;27;19920;-77
2022/09/17 01:28:51;;;;;;;;;;;;;;;;;;5106546;28;19912;-78
2022/09/17 01:31:38;;;;;;;;;;;;;;;;;;5123837;27;19934;-77
2022/09/17 01:34:26;;;;;;;;;;;;;;;;;;5107617;27;19918;-77
2022/09/17 01:37:13;;;;;;;;;;;;;;;;;;5123449;27;19923;-77
2022/09/17 01:40:00;;;;;;;;;;;;;;;;;;5106245;27;19931;-77
2022/09/17 01:42:46;;;;;;;;;;;;;;;;;;5121674;27;19908;-77
2022/09/17 01:45:32;;;;;;;;;;;;;;;;;;5098201;27;19915;-77
2022/09/17 01:48:19;;;;;;;;;;;;;;;;;;5105480;27;19923;-77
2022/09/17 01:51:06;;;;;;;;;;;;;;;;;;5102474;28;19908;-77
2022/09/17 01:53:52;;;;;;;;;;;;;;;;;;5108099;28;20374;-77
2022/09/17 01:56:38;;;;;;;;;;;;;;;;;;5111123;27;19912;-77
2022/09/17 01:59:26;;;;;;;;;;;;;;;;;;5106324;27;19914;-78
2022/09/17 02:02:12;;;;;;;;;;;;;;;;;;5108674;27;19908;-77
2022/09/17 02:04:58;;;;;;;;;;;;;;;;;;5104014;28;19926;-77
2022/09/17 02:07:45;;;;;;;;;;;;;;;;;;5107282;27;20394;-78
2022/09/17 02:10:33;;;;;;;;;;;;;;;;;;5110128;27;19912;-77
2022/09/17 02:13:19;;;;;;;;;;;;;;;;;;5113149;27;20351;-76
2022/09/17 02:16:06;;;;;;;;;;;;;;;;;;5094289;27;19912;-77
2022/09/17 02:18:52;;;;;;;;;;;;;;;;;;5104834;28;20378;-78
2022/09/17 02:21:39;;;;;;;;;;;;;;;;;;5105768;28;19916;-78
2022/09/17 02:24:25;;;;;;;;;;;;;;;;;;5113587;27;20367;-78
2022/09/17 02:27:13;;;;;;;;;;;;;;;;;;5111853;27;19912;-78
2022/09/17 02:29:59;;;;;;;;;;;;;;;;;;5095222;28;19916;-78
2022/09/17 02:32:46;;;;;;;;;;;;;;;;;;5096741;27;19919;-78
2022/09/17 02:35:32;;;;;;;;;;;;;;;;;;5091882;28;20344;-77
2022/09/17 02:38:19;;;;;;;;;;;;;;;;;;5105769;28;19912;-78
2022/09/17 02:41:05;;;;;;;;;;;;;;;;;;5109726;27;19914;-78
2022/09/17 02:43:52;;;;;;;;;;;;;;;;;;5086316;28;19926;-78
2022/09/17 02:46:38;;;;;;;;;;;;;;;;;;5110618;27;19915;-77
2022/09/17 02:49:24;;;;;;;;;;;;;;;;;;5115782;27;20342;-78
2022/09/17 02:52:12;;;;;;;;;;;;;;;;;;5101773;27;19920;-78
2022/09/17 02:54:58;;;;;;;;;;;;;;;;;;5109433;27;20418;-76
2022/09/17 02:57:45;;;;;;;;;;;;;;;;;;5100802;27;19912;-77
2022/09/17 03:00:31;;;;;;;;;;;;;;;;;;5105246;27;19908;-77
2022/09/17 03:03:18;;;;;;;;;;;;;;;;;;5094112;28;19916;-77
2022/09/17 03:06:04;;;;;;;;;;;;;;;;;;5102626;28;20400;-77
2022/09/17 03:08:51;;;;;;;;;;;;;;;;;;5114282;27;19908;-78
2022/09/17 03:11:37;;;;;;;;;;;;;;;;;;5094932;28;19941;-78
2022/09/17 03:14:24;;;;;;;;;;;;;;;;;;5120925;27;19912;-77
2022/09/17 03:17:10;;;;;;;;;;;;;;;;;;5098310;28;20393;-77
2022/09/17 03:19:57;;;;;;;;;;;;;;;;;;5092085;27;20009;-77
2022/09/17 03:22:43;;;;;;;;;;;;;;;;;;5115157;27;19923;-77
2022/09/17 03:25:30;;;;;;;;;;;;;;;;;;5108599;28;19930;-77
2022/09/17 03:28:17;;;;;;;;;;;;;;;;;;5087131;28;19908;-76
2022/09/17 03:31:04;;;;;;;;;;;;;;;;;;5097625;27;19908;-77
2022/09/17 03:33:51;;;;;;;;;;;;;;;;;;5104510;28;19908;-77
2022/09/17 03:36:37;;;;;;;;;;;;;;;;;;5103159;27;20006;-78
2022/09/17 03:39:23;;;;;;;;;;;;;;;;;;5109683;28;19912;-77
2022/09/17 03:42:10;;;;;;;;;;;;;;;;;;5101511;27;20017;-77
2022/09/17 03:44:56;;;;;;;;;;;;;;;;;;5111865;27;19915;-77
2022/09/17 03:47:43;;;;;;;;;;;;;;;;;;5103507;27;19918;-78
2022/09/17 03:50:29;;;;;;;;;;;;;;;;;;5112889;27;20367;-77
2022/09/17 03:53:16;;;;;;;;;;;;;;;;;;5116961;27;20389;-77
2022/09/17 03:56:02;;;;;;;;;;;;;;;;;;5097021;27;19919;-77
2022/09/17 03:58:49;;;;;;;;;;;;;;;;;;5102309;28;19919;-77
2022/09/17 04:01:35;;;;;;;;;;;;;;;;;;5101434;27;19917;-77
2022/09/17 04:04:22;;;;;;;;;;;;;;;;;;5107101;28;19935;-77
2022/09/17 04:07:08;;;;;;;;;;;;;;;;;;5109796;28;20365;-77
2022/09/17 04:09:55;;;;;;;;;;;;;;;;;;5109178;28;19922;-77
2022/09/17 04:12:41;;;;;;;;;;;;;;;;;;5112768;27;19915;-77
2022/09/17 04:15:28;;;;;;;;;;;;;;;;;;5085182;28;19915;-77
2022/09/17 04:18:14;;;;;;;;;;;;;;;;;;5114089;27;19933;-77
2022/09/17 04:21:01;;;;;;;;;;;;;;;;;;5106750;28;19931;-78
2022/09/17 04:23:47;;;;;;;;;;;;;;;;;;5108233;27;19926;-77
2022/09/17 04:26:37;;;;;;;;;;;;;;;;;;5098932;28;20034;-78
2022/09/17 04:29:23;;;;;;;;;;;;;;;;;;5104839;27;19918;-77
2022/09/17 04:32:09;;;;;;;;;;;;;;;;;;5096365;28;19912;-78
2022/09/17 04:34:56;;;;;;;;;;;;;;;;;;5091949;28;19914;-77
2022/09/17 04:37:42;;;;;;;;;;;;;;;;;;5106219;27;19908;-77
2022/09/17 04:40:29;;;;;;;;;;;;;;;;;;5110377;28;19912;-76
2022/09/17 04:43:15;;;;;;;;;;;;;;;;;;5109914;27;19915;-76
2022/09/17 04:46:02;;;;;;;;;;;;;;;;;;5109277;27;19918;-77
2022/09/17 04:48:48;;;;;;;;;;;;;;;;;;5083973;28;19908;-76
2022/09/17 04:51:35;;;;;;;;;;;;;;;;;;5113219;28;19933;-78
2022/09/17 04:54:21;;;;;;;;;;;;;;;;;;5118168;28;19916;-77
2022/09/17 04:57:08;;;;;;;;;;;;;;;;;;5104810;28;19927;-78
2022/09/17 04:59:54;;;;;;;;;;;;;;;;;;5088411;28;19916;-77
2022/09/17 05:02:41;;;;;;;;;;;;;;;;;;5102656;28;19908;-77
2022/09/17 05:05:27;;;;;;;;;;;;;;;;;;5107307;28;19943;-78
2022/09/17 05:08:14;;;;;;;;;;;;;;;;;;5102194;28;19912;-77
2022/09/17 05:11:00;;;;;;;;;;;;;;;;;;5105525;28;19907;-76
2022/09/17 05:13:48;;;;;;;;;;;;;;;;;;5102717;28;19935;-77
2022/09/17 05:16:34;;;;;;;;;;;;;;;;;;5105490;28;20002;-78
2022/09/17 05:19:21;;;;;;;;;;;;;;;;;;5107632;28;19949;-78
2022/09/17 05:22:07;;;;;;;;;;;;;;;;;;5094025;28;20405;-78
2022/09/17 05:24:54;;;;;;;;;;;;;;;;;;5098077;28;19930;-78
2022/09/17 05:27:40;;;;;;;;;;;;;;;;;;5102852;28;19924;-78
2022/09/17 05:30:27;;;;;;;;;;;;;;;;;;5088663;28;19907;-78
2022/09/17 05:33:13;;;;;;;;;;;;;;;;;;5112109;28;19911;-78
2022/09/17 05:36:00;;;;;;;;;;;;;;;;;;5108510;28;19927;-78
2022/09/17 05:38:46;;;;;;;;;;;;;;;;;;5106028;28;19926;-78
2022/09/17 05:41:33;;;;;;;;;;;;;;;;;;5101264;28;19908;-78
2022/09/17 05:44:19;;;;;;;;;;;;;;;;;;5114931;28;19930;-79
2022/09/17 05:47:06;;;;;;;;;;;;;;;;;;5104416;28;19919;-78
2022/09/17 05:49:52;;;;;;;;;;;;;;;;;;5106051;28;19908;-78
2022/09/17 05:52:39;;;;;;;;;;;;;;;;;;5112300;28;19913;-78
2022/09/17 05:55:26;;;;;;;;;;;;;;;;;;5126624;28;19920;-78
2022/09/17 05:58:13;;;;;;;;;;;;;;;;;;5115025;28;19912;-77
2022/09/17 06:00:59;;;;;;;;;;;;;;;;;;5121365;28;19911;-78
2022/09/17 06:03:45;;;;;;;;;;;;;;;;;;5113348;28;19916;-77
2022/09/17 06:06:32;;;;;;;;;;;;;;;;;;5110345;27;19913;-78
2022/09/17 06:09:18;;;;;;;;;;;;;;;;;;5119009;27;19908;-78
2022/09/17 06:12:05;;;;;;;;;;;;;;;;;;5104399;27;20427;-78
2022/09/17 06:14:51;;;;;;;;;;;;;;;;;;5110494;28;19919;-78
2022/09/17 06:17:38;;;;;;;;;;;;;;;;;;5109507;27;20264;-78
2022/09/17 06:20:24;;;;;;;;;;;;;;;;;;5111975;27;19911;-77
2022/09/17 06:23:11;;;;;;;;;;;;;;;;;;5096899;27;20440;-77
2022/09/17 06:25:57;;;;;;;;;;;;;;;;;;5103098;27;20252;-76
2022/09/17 06:28:44;;;;;;;;;;;;;;;;;;5104958;27;19919;-78
2022/09/17 06:31:30;;;;;;;;;;;;;;;;;;5097478;28;19908;-77
2022/09/17 06:34:17;;;;;;;;;;;;;;;;;;5093915;28;19908;-77
2022/09/17 06:37:03;;;;;;;;;;;;;;;;;;5113017;27;19911;-77
2022/09/17 06:39:50;;;;;;;;;;;;;;;;;;5108679;27;19915;-77
2022/09/17 06:42:36;;;;;;;;;;;;;;;;;;5111161;27;19916;-77
2022/09/17 06:45:23;;;;;;;;;;;;;;;;;;5107381;27;19916;-77
2022/09/17 06:48:09;;;;;;;;;;;;;;;;;;5108734;27;19929;-78
2022/09/17 06:50:56;;;;;;;;;;;;;;;;;;5112405;27;19918;-78
2022/09/17 06:53:42;;;;;;;;;;;;;;;;;;5102075;27;19911;-77
2022/09/17 06:56:29;;;;;;;;;;;;;;;;;;5098235;28;19915;-77
2022/09/17 06:59:16;;;;;;;;;;;;;;;;;;5106270;27;19916;-78
2022/09/17 07:02:03;;;;;;;;;;;;;;;;;;5104980;27;19908;-77
2022/09/17 07:04:49;;;;;;;;;;;;;;;;;;5115050;27;19920;-77
2022/09/17 07:07:36;;;;;;;;;;;;;;;;;;5098481;27;19915;-77
2022/09/17 07:10:22;;;;;;;;;;;;;;;;;;5121208;27;19911;-77
2022/09/17 07:13:09;;;;;;;;;;;;;;;;;;5094059;27;19912;-77
2022/09/17 07:15:56;;;;;;;;;;;;;;;;;;5105020;27;20370;-78
2022/09/17 07:18:43;;;;;;;;;;;;;;;;;;5096877;28;19919;-78
2022/09/17 07:21:29;;;;;;;;;;;;;;;;;;5107008;27;19927;-76
2022/09/17 07:24:16;;;;;;;;;;;;;;;;;;5099550;28;19972;-77
2022/09/17 07:27:02;;;;;;;;;;;;;;;;;;5094382;27;19912;-79
2022/09/17 07:29:49;;;;;;;;;;;;;;;;;;5097332;28;20101;-78
2022/09/17 07:32:35;;;;;;;;;;;;;;;;;;5108022;27;19921;-79
2022/09/17 07:35:24;;;;;;;;;;;;;;;;;;5099247;27;21338;-78
2022/09/17 07:38:11;;;;;;;;;;;;;;;;;;5098211;27;19908;-79
2022/09/17 07:40:57;;;;;;;;;;;;;;;;;;5106675;27;20355;-79
2022/09/17 07:43:44;;;;;;;;;;;;;;;;;;5095058;27;19920;-79
2022/09/17 07:46:30;;;;;;;;;;;;;;;;;;5101904;28;19916;-79
2022/09/17 07:49:17;;;;;;;;;;;;;;;;;;5100036;27;19943;-79
2022/09/17 07:52:06;;;;;;;;;;;;;;;;;;5101595;27;19931;-79
2022/09/17 07:54:53;;;;;;;;;;;;;;;;;;5081671;28;19908;-79
2022/09/17 07:57:39;;;;;;;;;;;;;;;;;;5102976;28;19916;-80
2022/09/17 08:00:26;;;;;;;;;;;;;;;;;;5106013;27;19973;-79
2022/09/17 08:03:12;;;;;;;;;;;;;;;;;;5097993;27;19919;-79
2022/09/17 08:05:59;;;;;;;;;;;;;;;;;;5084271;28;19920;-80
2022/09/17 08:08:45;;;;;;;;;;;;;;;;;;5097557;27;19908;-79
2022/09/17 08:11:32;;;;;;;;;;;;;;;;;;5096262;27;19916;-81
2022/09/17 08:14:18;;;;;;;;;;;;;;;;;;5095487;28;19914;-78
2022/09/17 08:17:05;;;;;;;;;;;;;;;;;;5100267;28;19916;-78
2022/09/17 08:19:51;;;;;;;;;;;;;;;;;;5093527;28;19919;-83
2022/09/17 08:22:38;;;;;;;;;;;;;;;;;;5106916;27;19908;-79
2022/09/17 08:25:24;;;;;;;;;;;;;;;;;;5068138;28;21130;-79
2022/09/17 08:28:10;;;;;;;;;;;;;;;;;;5066585;28;19923;-79
2022/09/17 08:30:57;;;;;;;;;;;;;;;;;;5087077;28;19919;-82
2022/09/17 08:33:43;;;;;;;;;;;;;;;;;;5074950;28;19915;-81
2022/09/17 08:36:30;;;;;;;;;;;;;;;;;;5074337;28;19939;-81
2022/09/17 08:39:18;;;;;;;;;;;;;;;;;;5067778;28;20045;-82
2022/09/17 08:42:04;;;;;;;;;;;;;;;;;;5072048;28;19916;-77
2022/09/17 08:44:52;;;;;;;;;;;;;;;;;;5069402;28;19924;-77
2022/09/17 08:47:38;;;;;;;;;;;;;;;;;;5082462;28;20287;-76
2022/09/17 08:50:24;;;;;;;;;;;;;;;;;;5080802;28;19916;-75
2022/09/17 08:53:11;;;;;;;;;;;;;;;;;;5086271;28;19919;-76
2022/09/17 08:55:57;;;;;;;;;;;;;;;;;;5084498;28;19917;-76
2022/09/17 08:58:44;;;;;;;;;;;;;;;;;;5066242;28;19946;-77
2022/09/17 09:01:30;;;;;;;;;;;;;;;;;;5072634;28;19923;-77
2022/09/17 09:04:18;;;;;;;;;;;;;;;;;;5087190;28;19942;-80
2022/09/17 09:07:04;;;;;;;;;;;;;;;;;;5064546;28;19919;-74
2022/09/17 09:09:52;;;;;;;;;;;;;;;;;;5079609;28;19920;-76
2022/09/17 09:12:39;;;;;;;;;;;;;;;;;;5089212;28;19994;-76
2022/09/17 09:15:25;;;;;;;;;;;;;;;;;;5069679;28;19922;-76
2022/09/17 09:18:12;;;;;;;;;;;;;;;;;;5078306;28;20351;-77
2022/09/17 09:20:58;;;;;;;;;;;;;;;;;;5071955;28;19922;-76
2022/09/17 09:23:45;;;;;;;;;;;;;;;;;;5096742;28;19924;-76
2022/09/17 09:26:31;;;;;;;;;;;;;;;;;;5101626;28;19923;-77
2022/09/17 09:29:18;;;;;;;;;;;;;;;;;;5106076;28;19923;-76
2022/09/17 09:32:04;;;;;;;;;;;;;;;;;;5093279;28;20264;-76
2022/09/17 09:34:51;;;;;;;;;;;;;;;;;;5106073;28;19912;-75
2022/09/17 09:37:37;;;;;;;;;;;;;;;;;;5092207;28;20317;-75
2022/09/17 09:40:23;;;;;;;;;;;;;;;;;;5117678;27;19911;-75
2022/09/17 09:43:10;;;;;;;;;;;;;;;;;;5112442;27;20009;-76
2022/09/17 09:45:56;;;;;;;;;;;;;;;;;;5107849;27;19927;-76
2022/09/17 09:48:45;;;;;;;;;;;;;;;;;;5098889;28;20201;-77
2022/09/17 09:51:32;;;;;;;;;;;;;;;;;;5107816;28;19911;-76
2022/09/17 09:54:21;;;;;;;;;;;;;;;;;;5115327;27;19912;-76
2022/09/17 09:57:07;;;;;;;;;;;;;;;;;;5105356;27;19923;-76
2022/09/17 09:59:53;;;;;;;;;;;;;;;;;;5112289;27;19912;-76
2022/09/17 10:02:40;;;;;;;;;;;;;;;;;;5110041;28;19930;-76
2022/09/17 10:05:27;;;;;;;;;;;;;;;;;;5105015;28;19924;-76
2022/09/17 10:08:13;;;;;;;;;;;;;;;;;;5078744;28;20379;-75
2022/09/17 10:11:00;;;;;;;;;;;;;;;;;;5095096;28;19931;-75
2022/09/17 10:13:47;;;;;;;;;;;;;;;;;;5114406;27;20390;-76
2022/09/17 10:16:35;;;;;;;;;;;;;;;;;;5112051;28;19986;-76
2022/09/17 10:19:24;;;;;;;;;;;;;;;;;;5109060;27;19922;-76
2022/09/17 10:22:10;;;;;;;;;;;;;;;;;;5117417;27;19915;-75
2022/09/17 10:24:57;;;;;;;;;;;;;;;;;;5110513;28;19928;-76
2022/09/17 10:27:43;;;;;;;;;;;;;;;;;;5091781;28;19919;-76
2022/09/17 10:30:30;;;;;;;;;;;;;;;;;;5094626;27;19926;-75
2022/09/17 10:33:16;;;;;;;;;;;;;;;;;;5110974;27;19914;-76
2022/09/17 10:36:03;;;;;;;;;;;;;;;;;;5098319;28;19912;-76
2022/09/17 10:38:49;;;;;;;;;;;;;;;;;;5107337;28;19919;-76
2022/09/17 10:41:36;;;;;;;;;;;;;;;;;;5098819;28;19919;-76
2022/09/17 10:44:23;;;;;;;;;;;;;;;;;;5094619;27;20299;-76
2022/09/17 10:47:09;;;;;;;;;;;;;;;;;;5116382;27;20405;-76
2022/09/17 10:49:55;;;;;;;;;;;;;;;;;;5094529;28;19916;-75
2022/09/17 10:52:42;;;;;;;;;;;;;;;;;;5096740;27;20356;-76
2022/09/17 10:55:28;;;;;;;;;;;;;;;;;;5082188;28;19918;-76
2022/09/17 10:58:15;;;;;;;;;;;;;;;;;;5105206;28;19914;-78
2022/09/17 11:01:01;;;;;;;;;;;;;;;;;;5105052;27;19923;-78
2022/09/17 11:03:48;;;;;;;;;;;;;;;;;;5105743;27;19908;-78
2022/09/17 11:06:34;;;;;;;;;;;;;;;;;;5100743;27;20371;-79
2022/09/17 11:09:21;;;;;;;;;;;;;;;;;;5109827;27;19923;-77
2022/09/17 11:12:07;;;;;;;;;;;;;;;;;;5096651;28;19915;-76
2022/09/17 11:14:54;;;;;;;;;;;;;;;;;;5112587;27;19915;-77
2022/09/17 11:17:40;;;;;;;;;;;;;;;;;;5102251;27;19916;-77
2022/09/17 11:20:27;;;;;;;;;;;;;;;;;;5103803;28;19923;-78
2022/09/17 11:23:13;;;;;;;;;;;;;;;;;;5102088;27;19930;-78
2022/09/17 11:26:00;;;;;;;;;;;;;;;;;;5103076;27;19924;-77
2022/09/17 11:28:46;;;;;;;;;;;;;;;;;;5085110;28;19919;-78
2022/09/17 11:31:33;;;;;;;;;;;;;;;;;;5102041;28;19919;-77
2022/09/17 11:34:19;;;;;;;;;;;;;;;;;;5090875;28;19911;-76
2022/09/17 11:37:06;;;;;;;;;;;;;;;;;;5106771;27;19949;-76
2022/09/17 11:39:53;;;;;;;;;;;;;;;;;;5104286;27;19919;-78
2022/09/17 11:42:40;;;;;;;;;;;;;;;;;;5105259;27;19918;-79
2022/09/17 11:45:26;;;;;;;;;;;;;;;;;;5083645;28;19930;-79
2022/09/17 11:48:13;;;;;;;;;;;;;;;;;;5101067;27;20241;-80
2022/09/17 11:50:59;;;;;;;;;;;;;;;;;;5097312;27;19911;-79
2022/09/17 11:53:46;;;;;;;;;;;;;;;;;;5091586;28;19934;-81
2022/09/17 11:56:33;;;;;;;;;;;;;;;;;;5085762;27;19912;-77
2022/09/17 11:59:19;;;;;;;;;;;;;;;;;;5088802;28;19912;-80
2022/09/17 12:02:05;;;;;;;;;;;;;;;;;;5096959;28;19919;-78
2022/09/17 12:04:52;;;;;;;;;;;;;;;;;;5096507;28;19920;-79
2022/09/17 12:07:38;;;;;;;;;;;;;;;;;;5098740;27;19916;-79
2022/09/17 12:10:25;;;;;;;;;;;;;;;;;;5083363;28;19912;-78
2022/09/17 12:13:12;;;;;;;;;;;;;;;;;;5097906;28;19931;-77
2022/09/17 12:15:58;;;;;;;;;;;;;;;;;;5100296;27;19912;-78
2022/09/17 12:18:44;;;;;;;;;;;;;;;;;;5098146;27;19918;-78
2022/09/17 12:21:31;;;;;;;;;;;;;;;;;;5102835;27;19908;-78
2022/09/17 12:24:17;;;;;;;;;;;;;;;;;;5099563;27;19928;-78
2022/09/17 12:27:04;;;;;;;;;;;;;;;;;;5104748;27;19923;-79
2022/09/17 12:29:50;;;;;;;;;;;;;;;;;;5097940;27;19916;-78
2022/09/17 12:32:37;;;;;;;;;;;;;;;;;;5101863;28;19916;-78
2022/09/17 12:35:26;;;;;;;;;;;;;;;;;;5109888;27;19922;-77
2022/09/17 12:38:12;;;;;;;;;;;;;;;;;;5104796;28;20359;-78
2022/09/17 12:40:59;;;;;;;;;;;;;;;;;;5112055;27;19912;-78
2022/09/17 12:43:45;;;;;;;;;;;;;;;;;;5118240;27;19918;-78
2022/09/17 12:46:32;;;;;;;;;;;;;;;;;;5109895;28;19920;-78
2022/09/17 12:49:18;;;;;;;;;;;;;;;;;;5104893;28;19912;-78
2022/09/17 12:52:05;;;;;;;;;;;;;;;;;;5112326;27;19919;-80
2022/09/17 12:54:51;;;;;;;;;;;;;;;;;;5100415;28;19919;-78
2022/09/17 12:57:38;;;;;;;;;;;;;;;;;;5108553;28;19920;-78
2022/09/17 13:00:24;;;;;;;;;;;;;;;;;;5106717;28;20375;-79
2022/09/17 13:03:11;;;;;;;;;;;;;;;;;;5098546;27;19912;-80
2022/09/17 13:05:57;;;;;;;;;;;;;;;;;;5104641;28;19926;-80
2022/09/17 13:08:44;;;;;;;;;;;;;;;;;;5106359;28;19915;-79
2022/09/17 13:11:30;;;;;;;;;;;;;;;;;;5098870;28;19912;-82
2022/09/17 13:14:16;;;;;;;;;;;;;;;;;;5098157;28;19914;-80
2022/09/17 13:17:03;;;;;;;;;;;;;;;;;;5100643;28;19912;-81
2022/09/17 13:19:51;;;;;;;;;;;;;;;;;;5101151;27;20063;-80
2022/09/17 13:22:38;;;;;;;;;;;;;;;;;;5098381;27;19919;-80
2022/09/17 13:25:24;;;;;;;;;;;;;;;;;;5101435;27;19995;-81
2022/09/17 13:28:11;;;;;;;;;;;;;;;;;;5099528;27;19923;-77
2022/09/17 13:30:58;;;;;;;;;;;;;;;;;;5102121;27;19922;-77
2022/09/17 13:33:44;;;;;;;;;;;;;;;;;;5100107;28;19922;-79
2022/09/17 13:36:31;;;;;;;;;;;;;;;;;;5060624;27;20380;-77
2022/09/17 13:39:17;;;;;;;;;;;;;;;;;;5090664;27;19908;-77
2022/09/17 13:42:04;;;;;;;;;;;;;;;;;;5099638;27;20237;-77
2022/09/17 13:44:51;;;;;;;;;;;;;;;;;;5097426;27;19930;-78
2022/09/17 13:47:37;;;;;;;;;;;;;;;;;;5103155;27;20407;-78
2022/09/17 13:50:24;;;;;;;;;;;;;;;;;;5099437;27;19923;-78
2022/09/17 13:53:11;;;;;;;;;;;;;;;;;;5097847;27;19915;-78
2022/09/17 13:55:59;;;;;;;;;;;;;;;;;;5095269;28;19923;-76
2022/09/17 13:58:46;;;;;;;;;;;;;;;;;;5100075;27;19912;-77
2022/09/17 14:01:32;;;;;;;;;;;;;;;;;;5098930;27;19923;-76
2022/09/17 14:04:19;;;;;;;;;;;;;;;;;;5086908;28;19916;-78
2022/09/17 14:07:06;;;;;;;;;;;;;;;;;;5095848;27;20405;-77
2022/09/17 14:09:53;;;;;;;;;;;;;;;;;;5087845;28;19954;-77
2022/09/17 14:12:40;;;;;;;;;;;;;;;;;;5097423;28;19945;-78
2022/09/17 14:15:26;;;;;;;;;;;;;;;;;;5099073;27;19912;-78
2022/09/17 14:18:13;;;;;;;;;;;;;;;;;;5096485;27;19923;-79
2022/09/17 14:20:59;;;;;;;;;;;;;;;;;;5103111;28;20275;-78
2022/09/17 14:23:46;;;;;;;;;;;;;;;;;;5097107;28;19924;-78
2022/09/17 14:26:32;;;;;;;;;;;;;;;;;;5091119;27;19929;-78
2022/09/17 14:29:19;;;;;;;;;;;;;;;;;;5109858;27;19915;-78
2022/09/17 14:32:05;;;;;;;;;;;;;;;;;;5099119;27;19922;-77
2022/09/17 14:34:52;;;;;;;;;;;;;;;;;;5098287;27;19907;-77
2022/09/17 14:37:39;;;;;;;;;;;;;;;;;;5102729;27;19918;-76
2022/09/17 14:40:25;;;;;;;;;;;;;;;;;;5111450;27;19923;-78
2022/09/17 14:43:12;;;;;;;;;;;;;;;;;;5106404;27;19918;-78
2022/09/17 14:45:58;;;;;;;;;;;;;;;;;;5089565;28;19966;-79
2022/09/17 14:48:45;;;;;;;;;;;;;;;;;;5091730;28;19920;-78
2022/09/17 14:51:31;;;;;;;;;;;;;;;;;;5103769;27;19918;-78
2022/09/17 14:54:18;;;;;;;;;;;;;;;;;;5113884;27;19916;-77
2022/09/17 14:57:04;;;;;;;;;;;;;;;;;;5087129;28;19908;-77
2022/09/17 14:59:51;;;;;;;;;;;;;;;;;;5100371;27;19952;-77
2022/09/17 15:02:40;;;;;;;;;;;;;;;;;;5098825;27;19912;-78
2022/09/17 15:05:27;;;;;;;;;;;;;;;;;;5099057;27;19915;-78
2022/09/17 15:08:13;;;;;;;;;;;;;;;;;;5105928;28;19908;-79
2022/09/17 15:11:00;;;;;;;;;;;;;;;;;;5108360;28;19915;-77
2022/09/17 15:13:46;;;;;;;;;;;;;;;;;;5096407;27;20370;-78
2022/09/17 15:16:35;;;;;;;;;;;;;;;;;;5091170;27;19908;-78
2022/09/17 15:19:21;;;;;;;;;;;;;;;;;;5115108;27;20431;-76
2022/09/17 15:22:08;;;;;;;;;;;;;;;;;;5096830;28;19916;-77
2022/09/17 15:24:54;;;;;;;;;;;;;;;;;;5092671;28;20413;-77
2022/09/17 15:27:41;;;;;;;;;;;;;;;;;;5114623;27;19911;-78
2022/09/17 15:30:27;;;;;;;;;;;;;;;;;;5113371;27;19922;-77
2022/09/17 15:33:17;;;;;;;;;;;;;;;;;;5099794;27;20616;-76
2022/09/17 15:36:06;;;;;;;;;;;;;;;;;;5084916;27;19953;-77
2022/09/17 15:38:53;;;;;;;;;;;;;;;;;;5089898;27;19908;-78
2022/09/17 15:41:40;;;;;;;;;;;;;;;;;;5096192;28;19912;-77
2022/09/17 15:44:27;;;;;;;;;;;;;;;;;;5094417;27;19914;-77
2022/09/17 15:47:22;;;;;;;;;;;;;;;;;;5100221;27;19912;-77
2022/09/17 15:50:13;;;;;;;;;;;;;;;;;;5104618;27;19923;-78
2022/09/17 15:52:59;;;;;;;;;;;;;;;;;;5097599;27;19925;-77
2022/09/17 15:55:47;;;;;;;;;;;;;;;;;;5102081;27;19922;-77
2022/09/17 15:58:33;;;;;;;;;;;;;;;;;;5093960;27;19912;-78
2022/09/17 16:01:20;;;;;;;;;;;;;;;;;;5101247;27;19923;-78
2022/09/17 16:04:06;;;;;;;;;;;;;;;;;;5102576;27;19916;-78
2022/09/17 16:06:53;;;;;;;;;;;;;;;;;;5104584;27;19931;-78
2022/09/17 16:09:40;;;;;;;;;;;;;;;;;;5104860;27;19916;-77
2022/09/17 16:12:27;;;;;;;;;;;;;;;;;;5102140;27;19912;-78
2022/09/17 16:15:16;;;;;;;;;;;;;;;;;;5101334;28;19946;-78
2022/09/17 16:18:02;;;;;;;;;;;;;;;;;;5093867;28;19912;-78
2022/09/17 16:20:49;;;;;;;;;;;;;;;;;;5105721;27;20359;-80
2022/09/17 16:23:36;;;;;;;;;;;;;;;;;;5103095;28;19926;-80
2022/09/17 16:26:22;;;;;;;;;;;;;;;;;;5085043;28;20368;-80
2022/09/17 16:29:09;;;;;;;;;;;;;;;;;;5102540;27;19923;-79
2022/09/17 16:31:55;;;;;;;;;;;;;;;;;;5084365;28;19989;-79
2022/09/17 16:34:42;;;;;;;;;;;;;;;;;;5093184;27;19916;-79
2022/09/17 16:37:28;;;;;;;;;;;;;;;;;;5086628;27;19922;-79
2022/09/17 16:40:15;;;;;;;;;;;;;;;;;;5100366;28;19908;-80
2022/09/17 16:43:02;;;;;;;;;;;;;;;;;;5082156;28;19922;-78
2022/09/17 16:45:48;;;;;;;;;;;;;;;;;;5108689;27;20462;-79
2022/09/17 16:48:34;;;;;;;;;;;;;;;;;;5098758;28;19999;-80
2022/09/17 16:51:21;;;;;;;;;;;;;;;;;;5098805;28;19938;-80
2022/09/17 16:54:08;;;;;;;;;;;;;;;;;;5097765;28;20287;-81
2022/09/17 16:56:54;;;;;;;;;;;;;;;;;;5093423;28;19936;-81
2022/09/17 16:59:40;;;;;;;;;;;;;;;;;;5097624;28;20290;-80
2022/09/17 17:02:27;;;;;;;;;;;;;;;;;;5090609;28;19934;-81
2022/09/17 17:05:14;;;;;;;;;;;;;;;;;;5103070;28;20535;-80
2022/09/17 17:08:01;;;;;;;;;;;;;;;;;;5087819;28;19916;-80
2022/09/17 17:10:47;;;;;;;;;;;;;;;;;;5086551;28;19918;-80
2022/09/17 17:13:34;;;;;;;;;;;;;;;;;;5091917;28;20358;-80
2022/09/17 17:16:20;;;;;;;;;;;;;;;;;;5101999;28;19922;-80
2022/09/17 17:19:07;;;;;;;;;;;;;;;;;;5093619;28;19908;-81
2022/09/17 17:21:53;;;;;;;;;;;;;;;;;;5103398;28;19926;-80
2022/09/17 17:24:40;;;;;;;;;;;;;;;;;;5103429;28;19930;-81
2022/09/17 17:27:27;;;;;;;;;;;;;;;;;;5094304;28;19919;-81
2022/09/17 17:30:16;;;;;;;;;;;;;;;;;;5097593;28;19956;-81
2022/09/17 17:33:02;;;;;;;;;;;;;;;;;;5099208;28;20022;-81
2022/09/17 17:35:49;;;;;;;;;;;;;;;;;;5104978;28;19920;-81
2022/09/17 17:38:35;;;;;;;;;;;;;;;;;;5098142;28;19938;-80
2022/09/17 17:41:24;;;;;;;;;;;;;;;;;;5086783;28;20370;-78
2022/09/17 17:44:11;;;;;;;;;;;;;;;;;;5098474;28;19915;-78
2022/09/17 17:46:58;;;;;;;;;;;;;;;;;;5083697;28;19923;-79
2022/09/17 17:49:45;;;;;;;;;;;;;;;;;;5102389;28;19916;-78
2022/09/17 17:52:31;;;;;;;;;;;;;;;;;;5084986;28;19912;-78
2022/09/17 17:55:18;;;;;;;;;;;;;;;;;;5089580;28;20359;-78
2022/09/17 17:58:04;;;;;;;;;;;;;;;;;;5104397;28;19922;-78
2022/09/17 18:00:51;;;;;;;;;;;;;;;;;;5104376;27;19915;-78
2022/09/17 18:03:37;;;;;;;;;;;;;;;;;;5104772;27;20379;-78
2022/09/17 18:06:24;;;;;;;;;;;;;;;;;;5105363;27;19919;-81
2022/09/17 18:09:10;;;;;;;;;;;;;;;;;;5089389;28;19916;-81
2022/09/17 18:11:57;;;;;;;;;;;;;;;;;;5092500;27;19922;-78
2022/09/17 18:14:43;;;;;;;;;;;;;;;;;;5110298;27;19918;-78
2022/09/17 18:17:30;;;;;;;;;;;;;;;;;;5089862;28;20488;-78
2022/09/17 18:20:17;;;;;;;;;;;;;;;;;;5089734;28;19912;-78
2022/09/17 18:23:04;;;;;;;;;;;;;;;;;;5088504;28;19916;-78
2022/09/17 18:25:50;;;;;;;;;;;;;;;;;;5089100;27;19924;-78
2022/09/17 18:28:37;;;;;;;;;;;;;;;;;;5105368;27;19919;-77
2022/09/17 18:31:23;;;;;;;;;;;;;;;;;;5106221;27;19911;-78
2022/09/17 18:34:10;;;;;;;;;;;;;;;;;;5107040;27;19927;-80
2022/09/17 18:36:56;;;;;;;;;;;;;;;;;;5090570;27;19911;-80
2022/09/17 18:39:43;;;;;;;;;;;;;;;;;;5105666;28;19922;-78
2022/09/17 18:42:29;;;;;;;;;;;;;;;;;;5090775;28;20355;-76
2022/09/17 18:45:16;;;;;;;;;;;;;;;;;;5104342;27;19920;-77
2022/09/17 18:48:02;;;;;;;;;;;;;;;;;;5106947;27;19923;-77
2022/09/17 18:50:48;;;;;;;;;;;;;;;;;;5090569;28;20365;-77
2022/09/17 18:53:35;;;;;;;;;;;;;;;;;;5090441;28;19950;-78
2022/09/17 18:56:21;;;;;;;;;;;;;;;;;;5093102;27;19972;-79